Regan, North Dakota
Current Conditions -  °F | °C
As of 4:52 AM on Saturday 25 Oct 2014 (Local Time) from KBIS Reporting Station
Broken Clouds Broken Clouds  
Wind Chill:   Ceiling: 12000
Heat Index:   Visibility: 10mi
Dew Point:   Wind: 6mph
Humidity: 60%   Direction: 320°NW
Pressure: 30.1"   Gusts: NA
Location:  47.16°N, 100.53°W
Report Text: KBIS 250952Z 32005KT 10SM BKN120 07/00 A3010 RMK AO2 SLP196 T00720000
Loading
Personal Weather Stations






























Interactive Weather Map
Tropical Storm Tracking
New forecast layout! Learn more

10-Day Weather Forecast

Advertisements
Track Severe Weather on mobile